Time;durP1;ratioP1;P1;durP2;ratioP2;P2;SDS_P1;SDS_P2;PMS_P1;PMS_P2;Temp;Humidity;BMP_temperature;BMP_pressure;BME280_temperature;BME280_humidity;BME280_pressure;Samples;Min_cycle;Max_cycle;Signal;HPM_P1;HPM_P2
2021/10/05 00:02:09;;;;;;;3.13;0.88;;;;;;;10.27;80.52;99188.63;5089430;28;20059;-78
2021/10/05 00:04:36;;;;;;;2.10;1.02;;;;;;;10.29;80.41;99203.69;5087397;28;20127;-77
2021/10/05 00:07:05;;;;;;;1.00;0.90;;;;;;;10.27;80.56;99194.94;5088255;28;20044;-78
2021/10/05 00:09:32;;;;;;;1.10;0.98;;;;;;;10.26;80.48;99207.19;5089071;28;20047;-77
2021/10/05 00:11:59;;;;;;;3.95;1.33;;;;;;;10.28;80.55;99192.97;5085952;28;20065;-77
2021/10/05 00:14:26;;;;;;;1.15;1.05;;;;;;;10.29;80.45;99197.34;5087281;28;20384;-77
2021/10/05 00:16:53;;;;;;;2.65;1.60;;;;;;;10.33;80.60;99210.03;5088605;28;20040;-77
2021/10/05 00:19:19;;;;;;;3.65;2.03;;;;;;;10.30;80.58;99199.72;5088330;28;20055;-77
2021/10/05 00:21:46;;;;;;;2.53;1.65;;;;;;;10.32;80.62;99207.66;5085107;28;20407;-77
2021/10/05 00:24:13;;;;;;;2.20;1.88;;;;;;;10.35;80.48;99215.19;5088187;28;20404;-77
2021/10/05 00:26:39;;;;;;;3.72;2.45;;;;;;;10.31;80.52;99217.91;5088300;28;20043;-77
2021/10/05 00:29:06;;;;;;;4.18;2.50;;;;;;;10.31;80.60;99234.50;5087998;28;20476;-77
2021/10/05 00:31:33;;;;;;;2.95;2.22;;;;;;;10.31;80.76;99240.03;5086512;28;20040;-77
2021/10/05 00:34:00;;;;;;;3.10;2.80;;;;;;;10.34;80.71;99235.72;5087969;28;20070;-77
2021/10/05 00:36:27;;;;;;;4.38;3.00;;;;;;;10.32;80.93;99244.41;5086593;28;20044;-77
2021/10/05 00:38:54;;;;;;;7.97;2.80;;;;;;;10.33;80.77;99237.69;5087830;28;20051;-77
2021/10/05 00:41:20;;;;;;;4.65;3.67;;;;;;;10.32;80.73;99236.13;5086472;28;20062;-76
2021/10/05 00:43:47;;;;;;;3.15;2.80;;;;;;;10.35;80.77;99240.84;5085289;28;20071;-77
2021/10/05 00:46:15;;;;;;;3.83;3.40;;;;;;;10.38;80.87;99237.34;5087973;28;20424;-77
2021/10/05 00:48:42;;;;;;;4.07;3.00;;;;;;;10.36;80.73;99236.94;5089424;28;20040;-77
2021/10/05 00:51:08;;;;;;;3.83;3.33;;;;;;;10.35;80.66;99238.09;5084582;28;20594;-76
2021/10/05 00:53:35;;;;;;;4.80;3.53;;;;;;;10.38;80.73;99240.09;5085309;28;20051;-77
2021/10/05 00:56:03;;;;;;;5.90;3.83;;;;;;;10.34;80.80;99244.03;5069964;28;20044;-76
2021/10/05 00:58:29;;;;;;;5.35;4.65;;;;;;;10.30;81.06;99246.75;5069801;28;20082;-76
2021/10/05 01:00:56;;;;;;;6.88;5.10;;;;;;;10.30;81.29;99249.50;5083721;28;20040;-76
2021/10/05 01:03:23;;;;;;;5.57;3.53;;;;;;;10.29;81.10;99253.47;5084984;28;20434;-77
2021/10/05 01:05:50;;;;;;;3.30;3.00;;;;;;;10.29;81.17;99266.50;5087406;28;20047;-76
2021/10/05 01:08:20;;;;;;;4.45;3.42;;;;;;;10.25;81.48;99260.91;5087860;28;20051;-76
2021/10/05 01:10:47;;;;;;;5.15;3.75;;;;;;;10.23;81.35;99254.97;5086750;28;20060;-77
2021/10/05 01:13:14;;;;;;;3.42;2.47;;;;;;;10.26;81.42;99253.41;5085458;28;20040;-77
2021/10/05 01:15:41;;;;;;;2.38;1.92;;;;;;;10.28;81.52;99251.06;5085702;28;20040;-77
2021/10/05 01:18:08;;;;;;;2.75;2.40;;;;;;;10.29;81.22;99261.75;5088496;28;20062;-76
2021/10/05 01:20:55;;;;;;;2.78;2.33;;;;;;;10.28;81.67;99260.16;5087009;28;20484;-76
2021/10/05 01:23:26;;;;;;;2.60;2.40;;;;;;;10.30;81.61;99251.47;5086230;28;20043;-77
2021/10/05 01:25:53;;;;;;;6.50;4.13;;;;;;;10.32;81.51;99263.78;5085591;28;20048;-77
2021/10/05 01:28:23;;;;;;;3.53;3.03;;;;;;;10.33;81.54;99264.53;5082172;28;20059;-77
2021/10/05 01:30:50;;;;;;;4.47;3.20;;;;;;;10.36;81.51;99264.59;5084938;28;20161;-76
2021/10/05 01:33:20;;;;;;;4.15;3.22;;;;;;;10.36;81.53;99263.78;5086834;28;20059;-76
2021/10/05 01:35:47;;;;;;;5.65;4.00;;;;;;;10.33;81.56;99268.13;5088107;28;20111;-77
2021/10/05 01:38:14;;;;;;;6.68;4.28;;;;;;;10.29;81.54;99270.06;5087300;28;20044;-77
2021/10/05 01:40:40;;;;;;;5.25;4.40;;;;;;;10.23;81.67;99271.56;5086037;28;20415;-77
2021/10/05 01:43:07;;;;;;;9.52;4.05;;;;;;;10.22;81.68;99275.50;5086013;28;20055;-76
2021/10/05 01:45:37;;;;;;;5.60;3.78;;;;;;;10.22;81.66;99280.22;5086017;28;20081;-76
2021/10/05 01:48:05;;;;;;;10.32;5.32;;;;;;;10.21;81.65;99278.66;5087145;28;20507;-76
2021/10/05 01:50:32;;;;;;;6.05;3.92;;;;;;;10.19;81.70;99287.31;5086718;28;20040;-76
2021/10/05 01:52:59;;;;;;;6.78;3.85;;;;;;;10.19;81.67;99286.53;5083317;28;20159;-76
2021/10/05 01:55:26;;;;;;;7.18;3.83;;;;;;;10.18;81.92;99282.97;5088358;28;20044;-76
2021/10/05 01:57:53;;;;;;;4.03;3.40;;;;;;;10.19;81.92;99281.00;5084859;28;20687;-76
2021/10/05 02:00:20;;;;;;;3.58;2.90;;;;;;;10.17;81.92;99280.56;5082941;28;20073;-76
2021/10/05 02:02:48;;;;;;;3.88;2.90;;;;;;;10.17;81.92;99286.91;5087260;28;20044;-77
2021/10/05 02:05:15;;;;;;;4.72;3.60;;;;;;;10.19;81.84;99292.84;5086155;28;20052;-76
2021/10/05 02:07:42;;;;;;;4.88;4.38;;;;;;;10.18;81.69;99302.34;5085262;28;21453;-76
2021/10/05 02:10:10;;;;;;;4.88;3.20;;;;;;;10.14;81.84;99301.47;5086459;28;20047;-76
2021/10/05 02:12:36;;;;;;;5.07;3.40;;;;;;;10.08;82.09;99311.28;5085599;28;20032;-76
2021/10/05 02:15:05;;;;;;;5.80;3.30;;;;;;;10.09;82.16;99314.81;5083713;28;20480;-76
2021/10/05 02:17:32;;;;;;;4.30;3.25;;;;;;;10.08;81.84;99318.75;5084379;28;20067;-76
2021/10/05 02:19:58;;;;;;;5.78;3.10;;;;;;;10.03;81.98;99317.13;5083374;28;20040;-76
2021/10/05 02:22:25;;;;;;;7.18;3.22;;;;;;;10.03;82.06;99311.59;5086459;28;20198;-76
2021/10/05 02:24:52;;;;;;;4.28;2.83;;;;;;;10.04;81.86;99332.53;5096097;28;20050;-77
2021/10/05 02:27:21;;;;;;;3.25;2.90;;;;;;;10.03;81.86;99336.50;5084948;28;20078;-76
2021/10/05 02:29:48;;;;;;;4.32;3.33;;;;;;;10.05;81.92;99349.94;5085296;28;20051;-76
2021/10/05 02:32:15;;;;;;;5.88;2.88;;;;;;;10.01;81.91;99346.31;5085209;28;20114;-76
2021/10/05 02:34:43;;;;;;;5.07;2.47;;;;;;;9.96;81.92;99352.97;5084549;28;20047;-76
2021/10/05 02:37:10;;;;;;;4.13;2.70;;;;;;;9.96;81.81;99355.72;5084229;28;20778;-76
2021/10/05 02:39:37;;;;;;;6.72;3.25;;;;;;;9.93;82.11;99362.00;5086210;28;20058;-77
2021/10/05 02:42:05;;;;;;;3.72;2.75;;;;;;;9.89;82.14;99358.41;5085364;28;20062;-76
2021/10/05 02:44:32;;;;;;;4.15;3.25;;;;;;;9.90;81.95;99365.50;5086898;28;20063;-76
2021/10/05 02:46:58;;;;;;;5.25;3.55;;;;;;;9.91;81.82;99374.63;5086562;28;20145;-77
2021/10/05 02:49:25;;;;;;;5.13;3.88;;;;;;;9.92;81.93;99371.50;5081910;28;20044;-76
2021/10/05 02:51:52;;;;;;;4.07;3.10;;;;;;;9.94;82.10;99377.44;5083869;28;20058;-76
2021/10/05 02:54:19;;;;;;;4.88;3.10;;;;;;;9.90;82.14;99373.81;5082009;28;20039;-77
2021/10/05 02:56:45;;;;;;;6.40;3.03;;;;;;;9.94;82.68;99387.69;5085757;28;20051;-77
2021/10/05 02:59:15;;;;;;;6.22;3.08;;;;;;;9.92;82.36;99382.56;5084458;28;20036;-77
2021/10/05 03:01:41;;;;;;;4.13;2.65;;;;;;;9.96;82.26;99388.09;5083586;28;20032;-77
2021/10/05 03:04:10;;;;;;;5.43;3.17;;;;;;;9.95;82.28;99387.34;5085788;28;20051;-76
2021/10/05 03:06:36;;;;;;;6.38;4.97;;;;;;;9.99;82.12;99398.41;5085445;28;20043;-77
2021/10/05 03:09:03;;;;;;;5.95;4.00;;;;;;;10.00;82.14;99411.88;5084375;28;20392;-77
2021/10/05 03:11:30;;;;;;;6.43;4.13;;;;;;;10.00;82.25;99406.34;5086528;28;20039;-77
2021/10/05 03:13:57;;;;;;;4.30;3.08;;;;;;;9.99;82.20;99407.53;5083798;28;20051;-77
2021/10/05 03:16:23;;;;;;;5.40;3.88;;;;;;;9.97;82.44;99411.84;5084458;28;20423;-77
2021/10/05 03:18:50;;;;;;;5.05;3.65;;;;;;;9.97;82.42;99420.94;5083280;28;20036;-77
2021/10/05 03:21:19;;;;;;;4.97;3.30;;;;;;;9.94;82.62;99418.91;5083261;28;20428;-77
2021/10/05 03:23:46;;;;;;;3.70;3.28;;;;;;;9.96;82.79;99424.84;5081369;28;20043;-77
2021/10/05 03:26:13;;;;;;;5.55;3.15;;;;;;;9.97;82.76;99428.41;5083963;28;20043;-77
2021/10/05 03:28:40;;;;;;;5.57;3.28;;;;;;;9.94;82.87;99423.63;5083713;28;20040;-77
2021/10/05 03:31:07;;;;;;;4.90;3.38;;;;;;;9.93;82.72;99428.34;5087916;28;20044;-77
2021/10/05 03:33:34;;;;;;;3.58;3.28;;;;;;;9.93;82.76;99431.13;5089177;28;20506;-77
2021/10/05 03:36:00;;;;;;;6.25;2.88;;;;;;;9.93;82.82;99444.16;5069274;28;20055;-77
2021/10/05 03:38:27;;;;;;;5.18;3.17;;;;;;;9.93;83.00;99449.69;5088476;28;20047;-76
2021/10/05 03:40:55;;;;;;;5.75;3.08;;;;;;;9.94;82.97;99446.56;5089143;28;20044;-77
2021/10/05 03:43:23;;;;;;;4.57;3.30;;;;;;;9.96;82.97;99451.69;5090373;28;20097;-77
2021/10/05 03:45:50;;;;;;;5.60;3.20;;;;;;;9.98;83.05;99463.19;5089437;28;20048;-77
2021/10/05 03:48:18;;;;;;;4.72;3.03;;;;;;;9.94;83.03;99474.19;5087716;28;20051;-77
2021/10/05 03:50:45;;;;;;;4.05;3.28;;;;;;;9.95;82.99;99470.28;5088546;28;20036;-77
2021/10/05 03:53:19;;;;;;;3.70;3.28;;;;;;;9.94;83.07;99473.41;5088830;28;20032;-77
2021/10/05 03:55:52;;;;;;;6.40;2.88;;;;;;;9.91;83.12;99474.94;5087329;28;20036;-77
2021/10/05 03:58:20;;;;;;;4.15;2.95;;;;;;;9.92;83.21;99478.50;5087966;28;20105;-77
2021/10/05 04:00:48;;;;;;;6.10;3.20;;;;;;;9.91;83.13;99485.19;5086784;28;20055;-77
2021/10/05 04:03:15;;;;;;;4.80;2.90;;;;;;;9.92;83.20;99493.13;5088604;28;20536;-77
2021/10/05 04:05:42;;;;;;;3.90;2.95;;;;;;;9.92;83.13;99487.59;5087235;28;20408;-77
2021/10/05 04:08:09;;;;;;;5.88;2.83;;;;;;;9.93;83.27;99491.16;5102832;28;20048;-77
2021/10/05 04:10:38;;;;;;;3.63;2.50;;;;;;;9.87;83.24;99489.88;5087589;28;20105;-77
2021/10/05 04:13:05;;;;;;;6.05;3.08;;;;;;;9.87;83.72;99498.19;5087079;28;20032;-77
2021/10/05 04:15:33;;;;;;;9.30;2.63;;;;;;;9.90;83.19;99500.97;5086181;28;20082;-77
2021/10/05 04:18:00;;;;;;;5.45;2.55;;;;;;;9.92;82.93;99501.44;5089195;28;20074;-78
2021/10/05 04:20:27;;;;;;;4.90;2.47;;;;;;;9.87;82.80;99512.00;5088856;28;20079;-77
2021/10/05 04:22:54;;;;;;;5.50;2.20;;;;;;;9.85;83.15;99508.81;5087941;28;20059;-77
2021/10/05 04:25:21;;;;;;;6.07;2.25;;;;;;;9.81;83.23;99517.03;5084327;28;20483;-77
2021/10/05 04:27:48;;;;;;;5.28;1.65;;;;;;;9.81;83.21;99525.31;5088097;28;20043;-77
2021/10/05 04:30:15;;;;;;;3.25;1.80;;;;;;;9.79;82.87;99524.91;5084774;28;20391;-77
2021/10/05 04:32:42;;;;;;;2.03;1.58;;;;;;;9.80;83.18;99524.53;5085537;28;20085;-77
2021/10/05 04:35:09;;;;;;;3.90;2.00;;;;;;;9.81;83.04;99536.38;5086117;28;20044;-77
2021/10/05 04:37:37;;;;;;;2.92;1.98;;;;;;;9.82;82.94;99532.47;5085212;28;20044;-77
2021/10/05 04:40:06;;;;;;;6.90;2.05;;;;;;;9.81;83.08;99536.38;5087510;28;20048;-77
2021/10/05 04:42:35;;;;;;;4.22;2.53;;;;;;;9.78;83.10;99539.88;5104590;28;20048;-77
2021/10/05 04:45:03;;;;;;;7.60;2.13;;;;;;;9.78;82.96;99542.66;5085539;28;20381;-77
2021/10/05 04:47:29;;;;;;;3.72;1.98;;;;;;;9.77;82.77;99546.56;5087259;28;20044;-77
2021/10/05 04:49:56;;;;;;;3.83;2.30;;;;;;;9.76;82.71;99544.97;5087359;28;20066;-77
2021/10/05 04:52:23;;;;;;;4.65;2.60;;;;;;;9.68;82.74;99543.25;5087043;28;20046;-77
2021/10/05 04:54:51;;;;;;;2.70;1.90;;;;;;;9.68;82.95;99544.06;5084537;28;20373;-76
2021/10/05 04:57:17;;;;;;;5.45;2.10;;;;;;;9.67;82.96;99553.50;5087989;28;20146;-76
2021/10/05 04:59:44;;;;;;;5.35;2.35;;;;;;;9.65;82.88;99549.53;5087440;28;20055;-77
2021/10/05 05:02:11;;;;;;;3.33;2.15;;;;;;;9.63;82.65;99563.72;5087733;28;20050;-77
2021/10/05 05:04:38;;;;;;;7.07;2.63;;;;;;;9.63;82.44;99551.88;5082531;28;20573;-77
2021/10/05 05:07:05;;;;;;;5.30;2.10;;;;;;;9.61;82.37;99554.19;5087825;28;20038;-76
2021/10/05 05:09:32;;;;;;;2.70;2.00;;;;;;;9.59;82.49;99564.81;5087596;28;20102;-77
2021/10/05 05:11:59;;;;;;;6.18;2.63;;;;;;;9.53;82.56;99563.53;5085654;28;20044;-76
2021/10/05 05:14:25;;;;;;;2.60;2.10;;;;;;;9.50;82.65;99564.25;5087660;28;20154;-76
2021/10/05 05:16:52;;;;;;;6.05;2.40;;;;;;;9.48;82.45;99570.13;5084397;28;20411;-77
2021/10/05 05:19:19;;;;;;;5.95;3.30;;;;;;;9.48;82.53;99583.13;5088494;28;20051;-77
2021/10/05 05:21:45;;;;;;;4.70;2.58;;;;;;;9.45;82.66;99579.16;5085338;28;20054;-76
2021/10/05 05:24:12;;;;;;;4.65;2.50;;;;;;;9.43;82.59;99586.19;5085517;28;20040;-77
2021/10/05 05:26:39;;;;;;;5.43;2.33;;;;;;;9.41;82.53;99588.53;5087023;28;20079;-76
2021/10/05 05:29:06;;;;;;;6.70;2.88;;;;;;;9.37;82.47;99588.47;5069360;28;20048;-77
2021/10/05 05:31:33;;;;;;;3.20;2.47;;;;;;;9.37;82.59;99587.69;5086511;28;20059;-76
2021/10/05 05:34:00;;;;;;;11.52;4.00;;;;;;;9.33;82.57;99587.59;5088070;28;20140;-77
2021/10/05 05:36:27;;;;;;;9.20;2.88;;;;;;;9.33;82.54;99603.38;5086654;28;20040;-76
2021/10/05 05:38:53;;;;;;;6.47;3.10;;;;;;;9.28;82.63;99612.75;5086665;28;20462;-76
2021/10/05 05:41:20;;;;;;;8.43;3.20;;;;;;;9.24;82.54;99605.56;5087074;28;20048;-76
2021/10/05 05:43:47;;;;;;;7.72;3.28;;;;;;;9.24;82.54;99605.56;5086618;28;20123;-76
2021/10/05 05:46:13;;;;;;;7.05;2.70;;;;;;;9.21;82.29;99617.34;5086188;28;20036;-76
2021/10/05 05:48:40;;;;;;;5.40;2.92;;;;;;;9.15;82.43;99614.88;5083732;28;20044;-76
2021/10/05 05:51:07;;;;;;;5.72;2.55;;;;;;;9.10;82.73;99625.41;5087148;28;20043;-76
2021/10/05 05:53:33;;;;;;;9.55;3.78;;;;;;;9.08;82.79;99625.75;5085746;28;20031;-77
2021/10/05 05:56:00;;;;;;;6.97;2.25;;;;;;;9.07;82.69;99628.88;5086833;28;20055;-76
2021/10/05 05:58:27;;;;;;;3.33;1.60;;;;;;;9.06;82.59;99633.59;5084588;28;20114;-76
2021/10/05 06:00:54;;;;;;;7.60;2.40;;;;;;;9.06;82.62;99644.66;5087088;28;20483;-76
2021/10/05 06:03:21;;;;;;;4.05;1.75;;;;;;;9.03;82.63;99639.84;5085604;28;20132;-76
2021/10/05 06:05:48;;;;;;;5.28;1.90;;;;;;;9.05;82.78;99653.31;5085636;28;20068;-76
2021/10/05 06:08:15;;;;;;;6.03;1.55;;;;;;;9.02;83.09;99657.59;5084991;28;20032;-77
2021/10/05 06:10:42;;;;;;;4.07;1.35;;;;;;;9.01;82.75;99661.50;5085800;28;20044;-76
2021/10/05 06:13:10;;;;;;;4.60;1.77;;;;;;;8.99;82.69;99660.25;5087354;28;20110;-76
2021/10/05 06:15:37;;;;;;;5.63;1.77;;;;;;;8.98;82.72;99675.22;5066386;28;20047;-76
2021/10/05 06:18:04;;;;;;;3.20;1.25;;;;;;;8.96;82.88;99664.53;5080822;28;20052;-77
2021/10/05 06:20:30;;;;;;;7.85;1.10;;;;;;;8.96;82.69;99680.31;5085501;28;20055;-76
2021/10/05 06:22:57;;;;;;;4.20;1.23;;;;;;;8.91;82.99;99686.91;5084483;28;20044;-76
2021/10/05 06:25:27;;;;;;;4.95;1.20;;;;;;;8.89;82.92;99683.72;5087152;28;20055;-76
2021/10/05 06:27:56;;;;;;;8.63;2.40;;;;;;;8.90;82.90;99695.53;5086819;28;20518;-76
2021/10/05 06:30:24;;;;;;;3.13;0.88;;;;;;;8.88;82.92;99697.84;5084895;28;20052;-76
2021/10/05 06:32:53;;;;;;;5.13;2.22;;;;;;;8.89;82.82;99705.78;5086480;28;20074;-76
2021/10/05 06:35:25;;;;;;;6.85;1.13;;;;;;;8.88;82.93;99704.19;5085064;28;20040;-76
2021/10/05 06:37:54;;;;;;;2.40;0.70;;;;;;;8.86;82.93;99717.56;5085588;28;20047;-76
2021/10/05 06:40:23;;;;;;;2.95;1.00;;;;;;;8.84;83.24;99722.59;5083944;28;20052;-76
2021/10/05 06:42:50;;;;;;;4.13;1.00;;;;;;;8.85;83.28;99720.66;5085216;28;20036;-77
2021/10/05 06:45:18;;;;;;;4.80;0.80;;;;;;;8.83;83.03;99729.31;5084623;28;20036;-76
2021/10/05 06:47:45;;;;;;;5.18;0.90;;;;;;;8.83;83.01;99729.31;5079740;28;20036;-76
2021/10/05 06:50:13;;;;;;;4.57;1.20;;;;;;;8.84;82.91;99730.09;5099003;28;20032;-76
2021/10/05 06:52:39;;;;;;;5.13;1.13;;;;;;;8.82;82.94;99735.97;5083678;28;20044;-76
2021/10/05 06:55:07;;;;;;;4.93;0.95;;;;;;;8.81;83.03;99731.63;5086601;28;20044;-76
2021/10/05 06:57:34;;;;;;;5.22;1.13;;;;;;;8.78;83.16;99743.38;5085331;28;20086;-77
2021/10/05 07:00:03;;;;;;;7.75;1.02;;;;;;;8.79;83.13;99755.22;5085006;28;20048;-77
2021/10/05 07:02:29;;;;;;;7.20;2.40;;;;;;;8.79;83.06;99750.47;5084916;28;20048;-75
2021/10/05 07:04:56;;;;;;;5.00;1.13;;;;;;;8.81;82.94;99764.75;5084975;28;20044;-77
2021/10/05 07:07:23;;;;;;;3.42;1.10;;;;;;;8.82;82.98;99765.53;5087519;28;20050;-76
2021/10/05 07:09:49;;;;;;;2.70;0.77;;;;;;;8.82;83.00;99760.81;5085760;28;20071;-76
2021/10/05 07:12:16;;;;;;;4.75;1.10;;;;;;;8.84;83.00;99768.75;5082725;28;20076;-76
2021/10/05 07:14:43;;;;;;;2.28;1.02;;;;;;;8.85;82.72;99775.84;5080455;28;20105;-76
2021/10/05 07:17:10;;;;;;;1.63;0.75;;;;;;;8.84;82.80;99775.03;5083548;28;20131;-77
2021/10/05 07:19:45;;;;;;;5.07;0.70;;;;;;;8.83;82.94;99780.94;5082562;28;20174;-77
2021/10/05 07:22:12;;;;;;;4.38;0.80;;;;;;;8.85;82.94;99789.66;5080372;28;20130;-76
2021/10/05 07:24:38;;;;;;;0.80;0.63;;;;;;;8.85;82.95;99787.69;5086326;28;20056;-77
2021/10/05 07:27:05;;;;;;;3.30;1.35;;;;;;;8.86;82.74;99794.84;5083444;28;20036;-77
2021/10/05 07:29:32;;;;;;;1.40;0.65;;;;;;;8.85;82.75;99790.47;5083013;28;20040;-77
2021/10/05 07:31:58;;;;;;;1.30;0.70;;;;;;;8.87;83.03;99796.41;5080429;28;20044;-77
2021/10/05 07:34:25;;;;;;;2.50;0.80;;;;;;;8.85;82.39;99797.94;5083904;28;20083;-77
2021/10/05 07:36:52;;;;;;;4.40;0.77;;;;;;;8.86;82.65;99799.53;5082187;28;20040;-77
2021/10/05 07:39:19;;;;;;;7.78;0.93;;;;;;;8.86;82.68;99814.16;5081004;28;20066;-77
2021/10/05 07:41:46;;;;;;;4.53;0.70;;;;;;;8.87;82.39;99809.44;5086955;28;20050;-77
2021/10/05 07:44:12;;;;;;;2.05;0.65;;;;;;;8.83;82.60;99805.78;5084428;28;20139;-77
2021/10/05 07:46:39;;;;;;;5.78;1.17;;;;;;;8.86;82.56;99813.34;5085249;28;20498;-78
2021/10/05 07:49:07;;;;;;;2.05;0.70;;;;;;;8.89;82.59;99818.97;5084949;28;20056;-78
2021/10/05 07:51:34;;;;;;;3.78;0.52;;;;;;;8.89;82.60;99816.19;5084331;28;20046;-78
2021/10/05 07:54:02;;;;;;;1.60;0.55;;;;;;;8.92;82.56;99821.00;5083517;28;20044;-77
2021/10/05 07:56:28;;;;;;;7.45;1.60;;;;;;;8.95;82.48;99820.28;5083031;28;20055;-78
2021/10/05 07:58:55;;;;;;;8.80;0.70;;;;;;;8.96;82.49;99830.19;5085771;28;20051;-77
2021/10/05 08:01:22;;;;;;;3.40;0.43;;;;;;;8.99;82.43;99837.75;5086292;28;20467;-77
2021/10/05 08:03:49;;;;;;;1.42;0.47;;;;;;;9.02;82.30;99836.22;5082932;28;20063;-78
2021/10/05 08:06:15;;;;;;;2.97;0.75;;;;;;;9.01;82.51;99823.56;5086565;28;20040;-77
2021/10/05 08:08:44;;;;;;;5.63;0.75;;;;;;;9.00;82.73;99833.81;5085475;28;20078;-77
2021/10/05 08:11:11;;;;;;;2.45;0.80;;;;;;;9.02;82.49;99836.22;5083639;28;20202;-77
2021/10/05 08:13:38;;;;;;;5.68;0.75;;;;;;;9.06;82.41;99843.44;5085346;28;20403;-76
2021/10/05 08:16:04;;;;;;;4.88;0.60;;;;;;;9.09;82.60;99853.78;5085597;28;20048;-77
2021/10/05 08:18:31;;;;;;;6.82;1.08;;;;;;;9.14;82.35;99845.22;5088861;28;20036;-77
2021/10/05 08:20:58;;;;;;;3.50;0.70;;;;;;;9.22;82.28;99845.38;5086978;28;20051;-78
2021/10/05 08:23:25;;;;;;;5.63;0.73;;;;;;;9.23;82.33;99850.56;5087116;28;20067;-77
2021/10/05 08:25:51;;;;;;;3.40;0.73;;;;;;;9.23;82.34;99863.56;5087697;28;20044;-77
2021/10/05 08:28:18;;;;;;;1.50;0.65;;;;;;;9.26;82.45;99851.81;5087691;28;20064;-77
2021/10/05 08:30:47;;;;;;;6.13;0.77;;;;;;;9.33;82.32;99851.97;5089009;28;20040;-77
2021/10/05 08:33:14;;;;;;;2.55;0.50;;;;;;;9.35;82.31;99855.16;5088221;28;20527;-76
2021/10/05 08:35:41;;;;;;;1.83;0.70;;;;;;;9.41;82.23;99870.31;5088243;28;20036;-77
2021/10/05 08:38:08;;;;;;;2.38;0.93;;;;;;;9.44;82.38;99875.94;5085189;28;20036;-77
2021/10/05 08:40:35;;;;;;;2.10;0.70;;;;;;;9.50;82.38;99879.22;5087660;28;20044;-77
2021/10/05 08:43:02;;;;;;;2.25;1.05;;;;;;;9.49;82.02;99883.94;5086540;28;20051;-77
2021/10/05 08:45:28;;;;;;;5.50;1.13;;;;;;;9.53;82.27;99886.81;5087178;28;20430;-77
2021/10/05 08:47:55;;;;;;;2.47;0.90;;;;;;;9.58;82.17;99889.28;5089452;28;20028;-77
2021/10/05 08:50:26;;;;;;;8.63;1.75;;;;;;;9.63;82.12;99886.25;5087624;28;20484;-77
2021/10/05 08:52:53;;;;;;;1.85;0.60;;;;;;;9.61;82.10;99899.63;5086732;28;20109;-77
2021/10/05 08:55:20;;;;;;;1.48;0.60;;;;;;;9.65;81.99;99908.78;5085567;28;20533;-77
2021/10/05 08:57:49;;;;;;;4.47;1.00;;;;;;;9.67;81.95;99911.97;5088435;28;20055;-77
2021/10/05 09:00:16;;;;;;;8.82;2.13;;;;;;;9.71;81.83;99910.94;5086439;28;20062;-78
2021/10/05 09:02:47;;;;;;;2.05;0.93;;;;;;;9.72;81.79;99912.50;5088175;28;20036;-77
2021/10/05 09:05:16;;;;;;;2.33;0.93;;;;;;;9.75;81.87;99919.28;5086266;28;20043;-77
2021/10/05 09:07:47;;;;;;;4.90;1.08;;;;;;;9.78;81.78;99927.66;5083704;28;20039;-77
2021/10/05 09:10:16;;;;;;;8.32;2.20;;;;;;;9.85;82.04;99938.06;5085590;28;20066;-77
2021/10/05 09:12:43;;;;;;;3.25;0.68;;;;;;;9.91;81.75;99928.34;5085431;28;20055;-78
2021/10/05 09:15:12;;;;;;;3.92;1.17;;;;;;;9.97;81.71;99932.44;5084320;28;20036;-77
2021/10/05 09:17:39;;;;;;;3.10;1.20;;;;;;;10.04;81.62;99938.13;5086908;28;20036;-77
2021/10/05 09:20:27;;;;;;;1.77;0.63;;;;;;;10.04;81.53;99943.66;5102226;28;20054;-77
2021/10/05 09:23:13;;;;;;;3.33;0.80;;;;;;;10.14;81.74;99954.19;5084931;28;20044;-77
2021/10/05 09:25:52;;;;;;;6.13;0.98;;;;;;;10.21;81.52;99957.13;5083825;28;20036;-77
2021/10/05 09:28:25;;;;;;;3.58;2.08;;;;;;;10.29;81.34;99958.06;5086180;28;20546;-77
2021/10/05 09:31:03;;;;;;;4.07;1.02;;;;;;;10.38;81.30;99965.00;5085666;28;20036;-77
2021/10/05 09:33:31;;;;;;;7.00;0.93;;;;;;;10.45;81.28;99952.47;5096525;28;20047;-77
2021/10/05 09:35:58;;;;;;;4.47;0.35;;;;;;;10.49;80.78;99961.63;5085004;28;20102;-77
2021/10/05 09:38:27;;;;;;;2.10;0.75;;;;;;;10.50;80.66;99961.28;5087329;28;20040;-77
2021/10/05 09:40:59;;;;;;;4.00;1.10;;;;;;;10.60;80.62;99993.13;5084783;28;20090;-77
2021/10/05 09:43:26;;;;;;;3.22;0.40;;;;;;;10.75;80.76;99972.88;5084603;28;20043;-77
2021/10/05 09:46:06;;;;;;;2.35;1.05;;;;;;;10.86;80.63;99985.75;5086463;28;20040;-77
2021/10/05 09:48:33;;;;;;;2.72;0.65;;;;;;;11.00;80.71;99991.59;5079681;28;20037;-77
2021/10/05 09:51:00;;;;;;;1.27;1.13;;;;;;;11.13;80.52;99995.00;5082344;28;20040;-77
2021/10/05 09:53:26;;;;;;;1.35;0.40;;;;;;;11.27;80.26;100000.81;5084047;28;20032;-77
2021/10/05 09:55:53;;;;;;;1.95;0.50;;;;;;;11.38;80.19;100004.56;5086065;28;20040;-76
2021/10/05 09:58:20;;;;;;;1.42;0.90;;;;;;;11.43;79.75;100015.34;5086861;28;20089;-77
2021/10/05 10:00:50;;;;;;;4.53;2.42;;;;;;;11.55;79.81;100011.59;5087558;28;20040;-77
2021/10/05 10:03:18;;;;;;;3.53;0.75;;;;;;;11.74;79.64;100014.34;5083255;28;20052;-78
2021/10/05 10:05:45;;;;;;;2.05;0.30;;;;;;;11.84;79.55;100024.78;5086465;28;20036;-77
2021/10/05 10:08:13;;;;;;;1.50;0.50;;;;;;;11.93;78.86;100024.53;5085331;28;20459;-77
2021/10/05 10:10:40;;;;;;;3.17;0.65;;;;;;;12.05;79.02;100041.78;5086113;28;20078;-77
2021/10/05 10:13:12;;;;;;;1.70;0.52;;;;;;;12.13;77.05;100034.38;5085850;28;20048;-77
2021/10/05 10:15:40;;;;;;;;;;;;;;;12.17;77.32;100035.25;5083284;28;20119;-77
2021/10/05 10:18:18;;;;;;;1.40;0.20;;;;;;;12.21;77.63;100044.41;5085432;28;19958;-77
2021/10/05 10:20:50;;;;;;;2.25;0.75;;;;;;;12.21;77.68;100044.41;5078507;28;20040;-78
2021/10/05 10:23:21;;;;;;;0.57;0.32;;;;;;;12.26;77.63;100049.63;5084434;28;20044;-77
2021/10/05 10:25:54;;;;;;;1.75;0.77;;;;;;;12.30;77.21;100052.47;5100521;28;20040;-78
2021/10/05 10:28:28;;;;;;;2.15;0.45;;;;;;;12.36;76.70;100051.81;5085118;28;20075;-77
2021/10/05 10:30:58;;;;;;;5.32;0.47;;;;;;;12.48;77.20;100057.13;5084753;28;20058;-77
2021/10/05 10:33:28;;;;;;;2.75;0.50;;;;;;;12.54;76.90;100063.97;5084268;28;20484;-77
2021/10/05 10:35:58;;;;;;;3.05;0.70;;;;;;;12.59;76.76;100071.97;5084446;28;20036;-77
2021/10/05 10:38:28;;;;;;;3.83;0.95;;;;;;;12.61;76.45;100086.25;5084720;28;20050;-77
2021/10/05 10:40:56;;;;;;;1.83;0.57;;;;;;;12.61;75.94;100075.16;5085585;28;20040;-78
2021/10/05 10:43:27;;;;;;;1.20;0.40;;;;;;;12.68;75.75;100086.34;5101732;28;20048;-78
2021/10/05 10:46:00;;;;;;;1.40;0.33;;;;;;;12.75;75.79;100077.34;5084485;28;20816;-77
2021/10/05 10:48:37;;;;;;;2.00;0.50;;;;;;;12.73;74.86;100080.47;5084399;28;20046;-77
2021/10/05 10:51:13;;;;;;;0.30;0.22;;;;;;;12.77;75.36;100081.34;5083028;28;20058;-77
2021/10/05 10:53:42;;;;;;;1.73;0.47;;;;;;;12.96;75.15;100093.50;5085658;28;20058;-77
2021/10/05 10:56:08;;;;;;;12.25;1.75;;;;;;;13.45;74.48;100080.22;5084157;28;20040;-77
2021/10/05 10:58:42;;;;;;;0.77;0.40;;;;;;;13.68;73.60;100089.22;5088593;28;20111;-77
2021/10/05 11:01:15;;;;;;;1.92;0.28;;;;;;;13.71;73.34;100082.09;5085940;28;20310;-77
2021/10/05 11:03:43;;;;;;;1.17;0.40;;;;;;;13.78;72.67;100090.50;5085729;28;20067;-77
2021/10/05 11:06:23;;;;;;;2.05;0.90;;;;;;;13.79;72.58;100084.53;5086315;28;20046;-77
2021/10/05 11:08:59;;;;;;;2.47;0.40;;;;;;;13.66;72.12;100094.34;5085228;28;20511;-78
2021/10/05 11:11:38;;;;;;;1.35;0.50;;;;;;;13.46;71.55;100101.28;5082783;28;20075;-78
2021/10/05 11:14:13;;;;;;;0.85;0.25;;;;;;;13.38;71.86;100105.16;5084663;28;20046;-78
2021/10/05 11:16:42;;;;;;;1.60;0.20;;;;;;;13.43;71.73;100104.81;5082661;28;20050;-78
2021/10/05 11:19:16;;;;;;;1.05;0.30;;;;;;;13.43;71.45;100102.06;5086314;28;20503;-77
2021/10/05 11:21:48;;;;;;;2.13;0.40;;;;;;;13.48;71.40;100101.72;5083060;28;20040;-78
2021/10/05 11:24:17;;;;;;;6.43;0.20;;;;;;;13.60;71.60;100111.78;5086236;28;20506;-77
2021/10/05 11:26:47;;;;;;;1.08;0.52;;;;;;;13.66;71.16;100119.38;5084213;28;20036;-78
2021/10/05 11:29:26;;;;;;;1.80;0.35;;;;;;;13.66;70.23;100127.72;5086193;28;20037;-77
2021/10/05 11:31:59;;;;;;;2.83;0.60;;;;;;;13.52;69.83;100124.81;5086196;28;20491;-76
2021/10/05 11:34:29;;;;;;;3.33;0.68;;;;;;;13.39;70.50;100123.47;5084912;28;20123;-78
2021/10/05 11:37:06;;;;;;;1.02;0.50;;;;;;;13.34;70.30;100124.59;5083927;28;20040;-78
2021/10/05 11:39:35;;;;;;;3.85;0.65;;;;;;;13.43;70.64;100127.06;5082049;28;20056;-78
2021/10/05 11:42:10;;;;;;;2.03;0.20;;;;;;;13.48;69.87;100140.63;5085266;28;20048;-78